createdAt,value
2022-11-14T00:00:53.632Z,16.85
2022-11-14T00:03:13.373Z,15.93
2022-11-14T00:05:37.651Z,28.00
2022-11-14T00:07:57.358Z,30.52
2022-11-14T00:10:17.465Z,20.33
2022-11-14T00:12:37.472Z,18.58
2022-11-14T00:14:57.060Z,18.02
2022-11-14T00:17:16.455Z,14.40
2022-11-14T00:19:35.933Z,17.88
2022-11-14T00:21:55.452Z,19.73
2022-11-14T00:24:14.880Z,20.60
2022-11-14T00:26:34.680Z,18.88
2022-11-14T00:28:54.850Z,30.58
2022-11-14T00:31:14.551Z,27.17
2022-11-14T00:33:34.658Z,22.20
2022-11-14T00:35:55.897Z,21.10
2022-11-14T00:38:15.734Z,19.50
2022-11-14T00:40:35.574Z,22.98
2022-11-14T00:42:55.082Z,21.05
2022-11-14T00:45:15.006Z,25.75
2022-11-14T00:47:34.612Z,21.30
2022-11-14T00:49:54.343Z,23.27
2022-11-14T00:52:14.140Z,22.30
2022-11-14T00:54:33.772Z,22.42
2022-11-14T00:56:53.412Z,20.40
2022-11-14T00:59:13.089Z,20.05
2022-11-14T01:01:32.773Z,20.17
2022-11-14T01:03:52.843Z,20.10
2022-11-14T01:06:13.896Z,18.35
2022-11-14T01:08:33.927Z,17.90
2022-11-14T01:10:53.878Z,19.63
2022-11-14T01:13:15.176Z,16.52
2022-11-14T01:15:48.391Z,14.10
2022-11-14T01:20:31.945Z,15.63
2022-11-14T01:22:51.426Z,13.52
2022-11-14T01:25:11.085Z,14.27
2022-11-14T01:27:31.301Z,14.40
2022-11-14T01:29:50.900Z,14.93
2022-11-14T01:32:10.709Z,13.75
2022-11-14T01:34:30.368Z,14.32
2022-11-14T01:36:50.039Z,13.30
2022-11-14T01:39:09.709Z,14.52
2022-11-14T01:41:29.457Z,26.38
2022-11-14T01:43:49.288Z,16.10
2022-11-14T01:46:14.490Z,13.02
2022-11-14T01:48:46.104Z,9.73
2022-11-14T01:51:16.019Z,12.20
2022-11-14T01:53:35.840Z,11.45
2022-11-14T01:55:59.404Z,14.02
2022-11-14T01:58:19.807Z,15.65
2022-11-14T02:00:39.639Z,16.95
2022-11-14T02:03:00.269Z,14.95
2022-11-14T02:05:21.010Z,21.45
2022-11-14T02:07:42.097Z,21.63
2022-11-14T02:10:09.942Z,20.20
2022-11-14T02:12:29.982Z,15.30
2022-11-14T02:14:53.870Z,14.75
2022-11-14T02:17:29.029Z,11.85
2022-11-14T02:20:03.754Z,12.07
2022-11-14T02:22:24.719Z,12.88
2022-11-14T02:24:45.201Z,15.57
2022-11-14T02:27:06.429Z,17.20
2022-11-14T02:29:26.193Z,21.17
2022-11-14T02:31:45.814Z,18.33
2022-11-14T02:34:05.474Z,14.60
2022-11-14T02:36:25.547Z,14.50
2022-11-14T02:38:45.532Z,13.45
2022-11-14T02:41:05.325Z,14.45
2022-11-14T02:43:24.859Z,11.65
2022-11-14T02:45:44.692Z,12.43
2022-11-14T02:48:04.992Z,14.32
2022-11-14T02:50:24.798Z,13.40
2022-11-14T02:52:44.365Z,16.40
2022-11-14T02:55:05.141Z,15.63
2022-11-14T02:57:25.021Z,14.45
2022-11-14T02:59:44.591Z,14.15
2022-11-14T03:02:04.347Z,12.98
2022-11-14T03:04:24.376Z,12.50
2022-11-14T03:06:44.181Z,12.40
2022-11-14T03:09:04.130Z,9.90
2022-11-14T03:11:23.836Z,11.20
2022-11-14T03:13:43.650Z,10.45
2022-11-14T03:16:09.507Z,12.90
2022-11-14T03:18:29.525Z,9.52
2022-11-14T03:20:49.282Z,9.20
2022-11-14T03:23:08.859Z,10.95
2022-11-14T03:25:28.930Z,8.77
2022-11-14T03:27:48.608Z,12.23
2022-11-14T03:30:08.978Z,10.88
2022-11-14T03:32:28.892Z,11.15
2022-11-14T03:34:48.715Z,11.93
2022-11-14T03:37:08.858Z,16.23
2022-11-14T03:39:28.581Z,17.05
2022-11-14T03:41:48.188Z,15.25
2022-11-14T03:44:07.919Z,12.68
2022-11-14T03:46:27.972Z,11.45
2022-11-14T03:48:48.167Z,13.55
2022-11-14T03:51:08.594Z,13.55
2022-11-14T03:53:28.318Z,14.63
2022-11-14T03:55:48.156Z,15.43
2022-11-14T03:58:07.752Z,14.43
2022-11-14T04:00:28.120Z,11.15
2022-11-14T04:02:48.025Z,9.88
2022-11-14T04:05:08.051Z,10.98
2022-11-14T04:07:27.523Z,11.65
2022-11-14T04:09:47.689Z,11.55
2022-11-14T04:12:10.122Z,10.32
2022-11-14T04:14:34.092Z,23.98
2022-11-14T04:16:54.088Z,10.55
2022-11-14T04:19:13.888Z,10.05
2022-11-14T04:21:33.761Z,8.85
2022-11-14T04:23:53.702Z,8.77
2022-11-14T04:26:13.256Z,10.45
2022-11-14T04:28:32.854Z,10.10
2022-11-14T04:30:52.894Z,10.52
2022-11-14T04:33:12.497Z,9.27
2022-11-14T04:35:32.288Z,10.75
2022-11-14T04:37:51.826Z,12.77
2022-11-14T04:40:11.856Z,12.52
2022-11-14T04:42:31.866Z,16.33
2022-11-14T04:44:52.037Z,20.88
2022-11-14T04:47:11.979Z,29.15
2022-11-14T04:49:31.589Z,28.95
2022-11-14T04:51:51.338Z,20.65
2022-11-14T04:54:11.050Z,21.00
2022-11-14T04:56:30.799Z,20.52
2022-11-14T04:58:51.399Z,21.98
2022-11-14T05:01:13.766Z,21.77
2022-11-14T05:03:33.674Z,24.10
2022-11-14T05:05:53.469Z,18.65
2022-11-14T05:08:13.522Z,16.48
2022-11-14T05:10:33.470Z,16.25
2022-11-14T05:12:54.203Z,12.90
2022-11-14T05:15:14.270Z,12.77
2022-11-14T05:17:34.371Z,11.60
2022-11-14T05:19:54.208Z,10.20
2022-11-14T05:22:13.817Z,11.43
2022-11-14T05:24:33.382Z,9.77
2022-11-14T05:26:52.878Z,9.07
2022-11-14T05:29:12.548Z,10.25
2022-11-14T05:31:32.371Z,8.65
2022-11-14T05:33:52.301Z,8.43
2022-11-14T05:36:15.222Z,10.48
2022-11-14T05:40:54.891Z,9.15
2022-11-14T05:43:14.537Z,8.30
2022-11-14T05:45:34.157Z,9.40
2022-11-14T05:47:53.896Z,11.05
2022-11-14T05:50:13.433Z,9.82
2022-11-14T05:52:32.910Z,9.40
2022-11-14T05:54:52.582Z,9.27
2022-11-14T05:57:12.247Z,10.60
2022-11-14T05:59:32.041Z,11.25
2022-11-14T06:01:51.492Z,11.65
2022-11-14T06:04:12.855Z,10.85
2022-11-14T06:06:32.936Z,10.45
2022-11-14T06:08:52.713Z,11.40
2022-11-14T06:11:18.383Z,11.18
2022-11-14T06:13:38.580Z,9.85
2022-11-14T06:16:04.610Z,10.23
2022-11-14T06:18:24.483Z,9.00
2022-11-14T06:20:44.353Z,10.20
2022-11-14T06:23:04.145Z,10.23
2022-11-14T06:25:23.868Z,9.40
2022-11-14T06:27:43.590Z,11.82
2022-11-14T06:30:03.922Z,11.07
2022-11-14T06:32:23.967Z,10.27
2022-11-14T06:34:44.290Z,11.55
2022-11-14T06:37:04.922Z,10.60
2022-11-14T06:39:24.905Z,11.00
2022-11-14T06:41:44.752Z,11.40
2022-11-14T06:44:07.676Z,11.77
2022-11-14T06:46:27.419Z,12.82
2022-11-14T06:48:48.158Z,14.50
2022-11-14T06:51:09.136Z,11.13
2022-11-14T06:53:30.935Z,13.52
2022-11-14T06:56:11.462Z,11.05
2022-11-14T06:58:33.636Z,9.93
2022-11-14T07:00:53.968Z,11.60
2022-11-14T07:03:13.784Z,11.00
2022-11-14T07:05:33.842Z,13.50
2022-11-14T07:07:53.404Z,12.32
2022-11-14T07:10:12.970Z,13.98
2022-11-14T07:12:32.548Z,13.40
2022-11-14T07:14:52.112Z,12.57
2022-11-14T07:17:12.002Z,11.13
2022-11-14T07:19:31.826Z,13.55
2022-11-14T07:21:51.704Z,15.55
2022-11-14T07:24:11.515Z,13.48
2022-11-14T07:26:31.568Z,13.95
2022-11-14T07:28:53.693Z,11.57
2022-11-14T07:31:18.624Z,9.23
2022-11-14T07:33:39.616Z,7.72
2022-11-14T07:35:59.846Z,8.75
2022-11-14T07:38:19.560Z,8.95
2022-11-14T07:40:39.523Z,9.27
2022-11-14T07:43:00.284Z,11.07
2022-11-14T07:45:21.960Z,10.55
2022-11-14T07:47:42.004Z,9.20
2022-11-14T07:50:01.638Z,9.43
2022-11-14T07:52:21.231Z,11.77
2022-11-14T07:54:41.033Z,12.07
2022-11-14T07:57:00.556Z,10.23
2022-11-14T07:59:20.338Z,9.15
2022-11-14T08:01:40.276Z,9.82
2022-11-14T08:04:00.118Z,8.93
2022-11-14T08:06:19.956Z,13.50
2022-11-14T08:08:39.701Z,10.75
2022-11-14T08:11:00.560Z,12.38
2022-11-14T08:13:36.121Z,8.60
2022-11-14T08:15:56.774Z,12.60
2022-11-14T08:18:17.057Z,9.30
2022-11-14T08:20:36.983Z,8.88
2022-11-14T08:23:04.264Z,9.85
2022-11-14T08:25:24.402Z,8.55
2022-11-14T08:27:44.050Z,8.90
2022-11-14T08:30:04.171Z,10.55
2022-11-14T08:32:23.791Z,8.50
2022-11-14T08:34:43.646Z,11.05
2022-11-14T08:37:03.534Z,10.13
2022-11-14T08:39:23.778Z,7.82
2022-11-14T08:41:43.735Z,8.50
2022-11-14T08:44:03.539Z,8.27
2022-11-14T08:46:23.626Z,8.65
2022-11-14T08:48:43.561Z,9.10
2022-11-14T08:51:05.506Z,8.63
2022-11-14T08:53:25.644Z,7.93
2022-11-14T08:55:46.777Z,8.20
2022-11-14T08:58:06.302Z,9.45
2022-11-14T09:00:26.117Z,9.30
2022-11-14T09:02:45.914Z,9.30
2022-11-14T09:05:06.263Z,8.68
2022-11-14T09:07:26.168Z,8.05
2022-11-14T09:09:45.857Z,9.30
2022-11-14T09:12:05.966Z,16.60
2022-11-14T09:14:25.863Z,14.65
2022-11-14T09:16:47.799Z,18.25
2022-11-14T09:19:07.559Z,17.87
2022-11-14T09:21:27.157Z,18.75
2022-11-14T09:23:47.174Z,14.55
2022-11-14T09:26:08.817Z,13.00
2022-11-14T09:28:28.693Z,9.93
2022-11-14T09:30:48.731Z,13.52
2022-11-14T09:33:11.911Z,14.73
2022-11-14T09:35:33.143Z,14.90
2022-11-14T09:38:19.361Z,11.75
2022-11-14T09:41:22.866Z,12.52
2022-11-14T09:44:01.005Z,10.55
2022-11-14T09:46:44.608Z,12.85
2022-11-14T09:49:17.079Z,13.27
2022-11-14T09:51:47.452Z,12.80
2022-11-14T09:54:07.059Z,12.15
2022-11-14T09:56:26.762Z,11.10
2022-11-14T09:58:46.939Z,10.93
2022-11-14T10:01:17.176Z,14.93
2022-11-14T10:03:49.855Z,14.02
2022-11-14T10:06:24.389Z,9.40
2022-11-14T10:09:28.918Z,9.77
2022-11-14T10:12:05.205Z,9.65
2022-11-14T10:15:09.386Z,8.90
2022-11-14T10:17:50.095Z,7.35
2022-11-14T10:20:31.666Z,9.15
2022-11-14T10:23:44.807Z,8.95
2022-11-14T10:26:25.509Z,8.75
2022-11-14T10:28:54.615Z,7.40
2022-11-14T10:31:39.309Z,8.00
2022-11-14T10:34:04.123Z,7.45
2022-11-14T10:36:49.893Z,8.82
2022-11-14T10:39:18.577Z,8.35
2022-11-14T10:41:56.772Z,8.73
2022-11-14T10:44:26.544Z,10.77
2022-11-14T10:46:52.070Z,8.50
2022-11-14T10:49:21.561Z,7.50
2022-11-14T10:51:46.042Z,11.27
2022-11-14T10:54:09.029Z,10.10
2022-11-14T10:56:29.305Z,7.43
2022-11-14T10:58:50.102Z,7.72
2022-11-14T11:01:35.157Z,6.50
2022-11-14T11:03:55.012Z,7.82
2022-11-14T11:06:25.884Z,5.80
2022-11-14T11:09:04.510Z,6.63
2022-11-14T11:11:31.759Z,6.38
2022-11-14T11:13:57.692Z,6.97
2022-11-14T11:16:21.550Z,5.72
2022-11-14T11:18:41.330Z,8.40
2022-11-14T11:21:06.294Z,8.98
2022-11-14T11:23:27.443Z,6.97
2022-11-14T11:26:15.218Z,6.15
2022-11-14T11:28:36.850Z,16.80
2022-11-14T11:30:58.826Z,9.55
2022-11-14T11:33:23.318Z,7.57
2022-11-14T11:35:45.280Z,9.48
2022-11-14T11:38:05.652Z,8.60
2022-11-14T11:40:29.056Z,6.53
2022-11-14T11:45:38.894Z,1.92
2022-11-14T11:48:21.092Z,2.30
2022-11-14T11:50:41.320Z,2.20
2022-11-14T11:53:17.910Z,2.25
2022-11-14T11:55:43.475Z,2.70
2022-11-14T11:58:12.045Z,2.17
2022-11-14T12:00:32.457Z,2.78
2022-11-14T12:02:54.074Z,2.25
2022-11-14T12:05:23.868Z,2.90
2022-11-14T12:08:08.983Z,1.85
2022-11-14T12:10:31.965Z,1.90
2022-11-14T12:15:43.904Z,4.25
2022-11-14T12:18:22.608Z,3.95
2022-11-14T12:20:51.274Z,5.55
2022-11-14T12:23:23.331Z,3.75
2022-11-14T12:26:06.367Z,5.05
2022-11-14T12:28:32.134Z,4.85
2022-11-14T12:30:57.196Z,4.78
2022-11-14T12:33:32.406Z,3.85
2022-11-14T12:35:58.944Z,2.30
2022-11-14T12:38:20.844Z,3.97
2022-11-14T12:40:55.403Z,2.70
2022-11-14T12:43:42.574Z,7.63
2022-11-14T12:46:10.808Z,4.28
2022-11-14T12:48:33.913Z,4.75
2022-11-14T12:53:38.590Z,3.55
2022-11-14T12:56:07.951Z,3.97
2022-11-14T12:58:43.292Z,4.10
2022-11-14T13:01:14.566Z,3.10
2022-11-14T13:03:59.454Z,2.63
2022-11-14T13:07:00.315Z,2.50
2022-11-14T13:09:52.581Z,2.63
2022-11-14T13:12:45.182Z,1.90
2022-11-14T13:15:49.163Z,1.58
2022-11-14T13:18:42.810Z,1.77
2022-11-14T13:21:44.986Z,1.40
2022-11-14T13:24:06.031Z,1.40
2022-11-14T13:26:25.754Z,1.50
2022-11-14T13:28:50.943Z,1.58
2022-11-14T13:31:16.304Z,2.72
2022-11-14T13:33:50.028Z,2.40
2022-11-14T13:36:40.319Z,1.88
2022-11-14T13:39:20.233Z,2.03
2022-11-14T13:41:47.549Z,2.20
2022-11-14T13:44:13.633Z,1.90
2022-11-14T13:47:01.794Z,1.70
2022-11-14T13:49:27.693Z,1.65
2022-11-14T13:51:50.773Z,1.63
2022-11-14T13:54:17.945Z,1.98
2022-11-14T13:56:40.909Z,3.10
2022-11-14T13:59:32.583Z,2.40
2022-11-14T14:02:24.182Z,2.15
2022-11-14T14:05:03.334Z,1.77
2022-11-14T14:07:40.659Z,2.08
2022-11-14T14:10:38.442Z,2.10
2022-11-14T14:12:58.750Z,2.00
2022-11-14T14:15:22.187Z,1.73
2022-11-14T14:17:42.282Z,2.13
2022-11-14T14:20:29.750Z,1.60
2022-11-14T14:23:23.046Z,1.88
2022-11-14T14:26:04.176Z,1.77
2022-11-14T14:28:32.903Z,1.77
2022-11-14T14:31:15.789Z,2.28
2022-11-14T14:33:44.351Z,1.95
2022-11-14T14:36:04.552Z,2.20
2022-11-14T14:38:27.315Z,1.65
2022-11-14T14:40:47.632Z,2.00
2022-11-14T14:43:13.273Z,1.83
2022-11-14T14:45:48.017Z,3.10
2022-11-14T14:48:19.990Z,2.30
2022-11-14T14:50:50.088Z,2.45
2022-11-14T14:53:27.594Z,2.25
2022-11-14T14:55:59.496Z,3.00
2022-11-14T14:58:23.082Z,4.13
2022-11-14T15:01:11.766Z,3.60
2022-11-14T15:03:40.263Z,2.67
2022-11-14T15:06:02.781Z,1.80
2022-11-14T15:08:22.452Z,2.80
2022-11-14T15:10:43.547Z,2.53
2022-11-14T15:13:04.356Z,2.08
2022-11-14T15:15:25.821Z,1.90
2022-11-14T15:17:45.713Z,2.47
2022-11-14T15:20:27.487Z,2.20
2022-11-14T15:23:19.373Z,2.85
2022-11-14T15:25:39.423Z,2.80
2022-11-14T15:28:00.232Z,2.38
2022-11-14T15:30:25.537Z,2.47
2022-11-14T15:32:54.649Z,2.88
2022-11-14T15:35:25.550Z,3.30
2022-11-14T15:38:42.160Z,3.00
2022-11-14T15:41:29.546Z,4.15
2022-11-14T15:43:53.035Z,3.80
2022-11-14T15:46:33.323Z,3.70
2022-11-14T15:48:53.164Z,3.40
2022-11-14T15:51:13.642Z,2.65
2022-11-14T15:53:34.389Z,3.38
2022-11-14T15:55:54.327Z,3.92
2022-11-14T15:58:27.675Z,5.90
2022-11-14T16:00:52.341Z,5.03
2022-11-14T16:03:16.128Z,5.68
2022-11-14T16:05:36.215Z,4.70
2022-11-14T16:07:56.610Z,4.82
2022-11-14T16:10:18.832Z,5.50
2022-11-14T16:12:38.454Z,4.28
2022-11-14T16:14:58.665Z,4.57
2022-11-14T16:17:18.308Z,5.88
2022-11-14T16:19:38.534Z,3.85
2022-11-14T16:22:02.336Z,4.70
2022-11-14T16:24:23.177Z,3.85
2022-11-14T16:26:42.846Z,4.07
2022-11-14T16:29:02.881Z,5.13
2022-11-14T16:31:22.681Z,5.70
2022-11-14T16:33:42.413Z,4.53
2022-11-14T16:36:02.065Z,4.50
2022-11-14T16:38:21.692Z,4.63
2022-11-14T16:40:44.094Z,4.40
2022-11-14T16:43:03.635Z,5.05
2022-11-14T16:45:25.027Z,4.55
2022-11-14T16:47:44.869Z,5.20
2022-11-14T16:50:05.752Z,5.03
2022-11-14T16:52:25.677Z,4.72
2022-11-14T16:54:45.686Z,4.32
2022-11-14T16:57:05.726Z,4.55
2022-11-14T16:59:25.527Z,4.47
2022-11-14T17:01:47.451Z,10.15
2022-11-14T17:04:07.457Z,10.03
2022-11-14T17:06:28.260Z,12.05
2022-11-14T17:08:52.295Z,10.88
2022-11-14T17:11:11.931Z,10.13
2022-11-14T17:13:32.009Z,8.85
2022-11-14T17:15:52.314Z,9.23
2022-11-14T17:18:12.443Z,10.50
2022-11-14T17:20:32.195Z,14.23
2022-11-14T17:22:51.953Z,16.48
2022-11-14T17:25:11.726Z,17.88
2022-11-14T17:27:31.443Z,11.57
2022-11-14T17:29:51.465Z,13.93
2022-11-14T17:32:11.513Z,13.02
2022-11-14T17:34:32.032Z,19.23
2022-11-14T17:36:51.968Z,17.85
2022-11-14T17:39:12.602Z,22.98
2022-11-14T17:41:33.349Z,11.85
2022-11-14T17:44:01.157Z,13.88
2022-11-14T17:46:21.173Z,13.05
2022-11-14T17:48:40.681Z,11.02
2022-11-14T17:51:05.412Z,12.23
2022-11-14T17:53:25.147Z,10.57
2022-11-14T17:55:45.402Z,10.02
2022-11-14T17:58:05.162Z,38.72
2022-11-14T18:00:25.358Z,30.08
2022-11-14T18:02:45.193Z,25.15
2022-11-14T18:05:05.503Z,33.58
2022-11-14T18:07:25.373Z,30.63
2022-11-14T18:09:45.635Z,22.45
2022-11-14T18:12:05.795Z,18.27
2022-11-14T18:14:25.460Z,13.77
2022-11-14T18:17:11.153Z,18.40
2022-11-14T18:19:24.845Z,23.75
2022-11-14T18:21:47.908Z,20.02
2022-11-14T18:24:11.914Z,19.02
2022-11-14T18:26:31.880Z,21.25
2022-11-14T18:28:55.518Z,18.20
2022-11-14T18:31:15.336Z,22.02
2022-11-14T18:33:35.151Z,21.38
2022-11-14T18:35:56.697Z,22.27
2022-11-14T18:38:16.266Z,26.05
2022-11-14T18:40:36.007Z,39.28
2022-11-14T18:42:55.565Z,36.08
2022-11-14T18:45:15.149Z,20.58
2022-11-14T18:47:34.819Z,24.17
2022-11-14T18:49:54.426Z,38.60
2022-11-14T18:52:17.476Z,29.10
2022-11-14T18:56:56.886Z,23.33
2022-11-14T18:59:17.132Z,26.88
2022-11-14T19:01:36.897Z,28.80
2022-11-14T19:03:59.359Z,26.52
2022-11-14T19:06:19.131Z,24.75
2022-11-14T19:08:39.799Z,25.35
2022-11-14T19:11:04.323Z,21.48
2022-11-14T19:13:24.403Z,21.83
2022-11-14T19:15:44.296Z,18.02
2022-11-14T19:18:04.044Z,18.13
2022-11-14T19:20:24.170Z,19.27
2022-11-14T19:22:44.505Z,24.42
2022-11-14T19:25:04.798Z,26.73
2022-11-14T19:27:24.816Z,29.65
2022-11-14T19:29:44.421Z,24.17
2022-11-14T19:32:04.633Z,29.70
2022-11-14T19:34:24.181Z,30.58
2022-11-14T19:37:00.959Z,27.27
2022-11-14T19:39:21.160Z,25.95
2022-11-14T19:41:41.182Z,25.67
2022-11-14T19:44:02.068Z,28.45
2022-11-14T19:46:24.384Z,23.60
2022-11-14T19:48:44.201Z,18.55
2022-11-14T19:51:05.325Z,19.08
2022-11-14T19:53:25.200Z,16.05
2022-11-14T19:55:44.837Z,11.77
2022-11-14T19:58:04.580Z,13.88
2022-11-14T20:00:25.043Z,16.05
2022-11-14T20:02:46.092Z,17.15
2022-11-14T20:05:07.570Z,26.38
2022-11-14T20:07:29.633Z,23.50
2022-11-14T20:09:49.494Z,17.75
2022-11-14T20:12:09.146Z,15.90
2022-11-14T20:14:28.791Z,18.80
2022-11-14T20:16:48.479Z,15.05
2022-11-14T20:19:08.249Z,16.02
2022-11-14T20:21:32.967Z,14.55
2022-11-14T20:23:52.968Z,12.82
2022-11-14T20:26:14.282Z,11.20
2022-11-14T20:28:34.215Z,14.30
2022-11-14T20:30:53.900Z,11.85
2022-11-14T20:33:13.617Z,17.15
2022-11-14T20:35:36.119Z,15.27
2022-11-14T20:37:58.343Z,42.60
2022-11-14T20:40:21.967Z,45.45
2022-11-14T20:42:41.435Z,51.75
2022-11-14T20:45:00.995Z,43.15
2022-11-14T20:47:21.905Z,43.83
2022-11-14T20:49:42.756Z,32.45
2022-11-14T20:52:04.209Z,33.22
2022-11-14T20:54:24.741Z,51.13
2022-11-14T20:56:44.494Z,41.25
2022-11-14T20:59:06.766Z,41.63
2022-11-14T21:01:26.274Z,32.78
2022-11-14T21:03:46.926Z,33.17
2022-11-14T21:06:07.465Z,37.55
2022-11-14T21:08:28.590Z,31.25
2022-11-14T21:10:50.168Z,23.48
2022-11-14T21:13:29.313Z,22.92
2022-11-14T21:15:49.475Z,21.02
2022-11-14T21:18:09.075Z,19.00
2022-11-14T21:20:28.766Z,20.35
2022-11-14T21:22:48.249Z,28.30
2022-11-14T21:25:08.260Z,37.90
2022-11-14T21:27:27.850Z,25.65
2022-11-14T21:29:47.562Z,23.25
2022-11-14T21:32:07.073Z,21.27
2022-11-14T21:34:26.797Z,21.92
2022-11-14T21:36:47.709Z,17.83
2022-11-14T21:39:07.589Z,19.60
2022-11-14T21:41:28.975Z,23.48
2022-11-14T21:43:53.423Z,20.60
2022-11-14T21:46:17.789Z,19.55
2022-11-14T21:48:41.475Z,17.95
2022-11-14T21:51:11.873Z,13.88
2022-11-14T21:53:31.927Z,14.65
2022-11-14T21:55:51.690Z,22.33
2022-11-14T21:58:12.442Z,30.17
2022-11-14T22:00:32.386Z,33.95
2022-11-14T22:03:15.043Z,31.00
2022-11-14T22:05:38.516Z,31.73
2022-11-14T22:07:58.517Z,47.90
2022-11-14T22:10:18.389Z,43.45
2022-11-14T22:12:37.956Z,40.42
2022-11-14T22:14:57.765Z,35.80
2022-11-14T22:17:17.449Z,35.28
2022-11-14T22:19:37.538Z,30.95
2022-11-14T22:21:57.058Z,25.38
2022-11-14T22:24:16.584Z,21.73
2022-11-14T22:26:39.213Z,20.00
2022-11-14T22:28:58.920Z,19.13
2022-11-14T22:31:20.639Z,17.50
2022-11-14T22:33:47.229Z,16.15
2022-11-14T22:36:16.439Z,23.02
2022-11-14T22:38:37.130Z,25.00
2022-11-14T22:40:57.940Z,27.33
2022-11-14T22:43:21.594Z,30.50
2022-11-14T22:45:41.483Z,31.65
2022-11-14T22:48:01.078Z,29.05
2022-11-14T22:50:20.794Z,30.05
2022-11-14T22:52:40.488Z,29.42
2022-11-14T22:55:00.200Z,26.38
2022-11-14T22:57:19.737Z,22.55
2022-11-14T22:59:39.289Z,23.42
2022-11-14T23:01:58.742Z,22.67
2022-11-14T23:04:18.420Z,21.40
2022-11-14T23:06:38.489Z,20.10
2022-11-14T23:09:00.040Z,21.60
2022-11-14T23:11:22.085Z,22.02
2022-11-14T23:13:50.940Z,22.67
2022-11-14T23:16:13.420Z,22.80
2022-11-14T23:18:33.356Z,26.02
2022-11-14T23:20:53.218Z,20.05
2022-11-14T23:23:15.014Z,19.42
2022-11-14T23:25:36.990Z,23.05
2022-11-14T23:27:57.751Z,21.33
2022-11-14T23:30:18.025Z,25.00
2022-11-14T23:32:37.811Z,29.92
2022-11-14T23:34:57.563Z,31.38
2022-11-14T23:37:17.205Z,25.42
2022-11-14T23:39:36.889Z,25.60
2022-11-14T23:41:56.625Z,26.33
2022-11-14T23:44:16.227Z,27.38
2022-11-14T23:46:35.856Z,23.08
2022-11-14T23:48:55.698Z,24.70
2022-11-14T23:51:16.797Z,22.27
2022-11-14T23:53:36.369Z,23.20
2022-11-14T23:55:58.568Z,23.20
2022-11-14T23:58:18.620Z,21.48
